Tuesday, September 16, 2014
21:35 UTC
  |  Log In   |  Register Free
Airport Search:

Akron-Canton Regional Airport
(KCAK)

Airport information sponsored by:
Ultimate Air Center at Akron-Canton Regional (KCAK), Akron, OH
FAA data valid effective July 24, 2014 until September 18, 2014 (unless otherwise noted).

 
 
 
 
 
 
 
 
 
 
 
 
 
 

Current Aviation Weather for Akron-Canton Regional Airport (KCAK)

The most recent METAR observation for KCAK was updated at: 2108
METAR Summary (Translated METAR)
KCAK
162051Z 31006KT 10SM FEW039 SCT045 19/09 A3008 RMK AO2 SLP183 T01890089 56010
KAKR
162054Z AUTO 35007KT 10SM BKN038 BKN046 BKN055 18/11 A3008 RMK AO2 SLP183 T01830106 56010
(7.4 nm NW from KCAK)
KBJJ
162056Z AUTO 33008KT 10SM CLR 19/10 A3009 RMK AO2 SLP188 T01940100 56010 TSNO
(20.3 nm SW from KCAK)
TAF Summary (Translated TAF)
KCAK
161739Z 1618/1718 34006KT P6SM BKN035 FM162000 34004KT P6SM BKN045 FM162200 36004KT P6SM SCT045 FM170100 VRB02KT P6SM SKC FM170800 VRB02KT 3SM BR SKC TEMPO 1711/1713 3/4SM BR BKN002 FM171400 24006KT P6SM SCT035
  Airport Weather Conditions for KCAK

 Current Weather at CAK
66° F
Partly Cloudy
Northwest winds at 6.9 mph
CAK NOAA Radar

Pressure: 30.08 in
Humidity: 52%
Wind: Northwest at 6.9 MPH (6 KT)
Dew Point: 48.0°F
Visibility: 10.00 mi


Airport Weather Forecast for KCAK

Translated METAR and TAF for KCAK
Translated METAR for KCAK (2129 UTC 16 September 2014)
found at http://aviationweather.gov/adds/metars/
 
METAR text: KCAK 162051Z 31006KT 10SM FEW039 SCT045 19/09 A3008 RMK AO2 SLP183 T01890089 56010
Conditions at: KCAK (AKRON , OH, US) observed 2051 UTC 16 September 2014
Temperature: 18.9°C (66°F)
Dewpoint: 8.9°C (48°F) [RH = 52%]
Pressure (altimeter): 30.08 inches Hg (1018.7 mb)
[Sea-level pressure: 1018.3 mb]
Winds: from the NW (310 degrees) at 7 MPH (6 knots; 3.1 m/s)
Visibility: 10 or more miles (16+ km)
Ceiling: at least 12,000 feet AGL
Clouds: few clouds at 3900 feet AGL
scattered clouds at 4500 feet AGL
Weather: no significant weather observed at this time
Translated TAF for KCAK
Forecast for: KCAK (AKRON , OH, US)
TAF Text: KCAK 161739Z 1618/1718 34006KT P6SM BKN035
Forecast period: 1800 to 2000 UTC 16 September 2014
Forecast type: FROM: standard forecast or significant change
Winds: from the NNW (340 degrees) at 7 MPH (6 knots; 3.1 m/s)
Visibility: 6 or more miles (10+ km)
Ceiling: 3500 feet AGL
Clouds: broken clouds at 3500 feet AGL
Weather: no significant weather forecast for this period
TAF Text: FM162000 34004KT P6SM BKN045
Forecast period: 2000 to 2200 UTC 16 September 2014
Forecast type: FROM: standard forecast or significant change
Winds: from the NNW (340 degrees) at 5 MPH (4 knots; 2.1 m/s)
Visibility: 6 or more miles (10+ km)
Ceiling: 4500 feet AGL
Clouds: broken clouds at 4500 feet AGL
Weather: no significant weather forecast for this period
TAF Text: FM162200 36004KT P6SM SCT045
Forecast period: 2200 UTC 16 September 2014 to 0100 UTC 17 September 2014
Forecast type: FROM: standard forecast or significant change
Winds: from the N (360 degrees) at 5 MPH (4 knots; 2.1 m/s)
Visibility: 6 or more miles (10+ km)
Clouds: scattered clouds at 4500 feet AGL
Weather: no significant weather forecast for this period
TAF Text: FM170100 VRB02KT P6SM SKC
Forecast period: 0100 to 0800 UTC 17 September 2014
Forecast type: FROM: standard forecast or significant change
Winds: variable direction winds at 2 MPH (2 knots; 1.0 m/s)
Visibility: 6 or more miles (10+ km)
Clouds: clear skies
Weather: no significant weather forecast for this period
TAF Text: FM170800 VRB02KT 3SM BR SKC
Forecast period: 0800 to 1400 UTC 17 September 2014
Forecast type: FROM: standard forecast or significant change
Winds: variable direction winds at 2 MPH (2 knots; 1.0 m/s)
Visibility: 3 miles (5 km)
Clouds: clear skies
Weather: BR  (mist)
TAF Text: TEMPO 1711/1713 3/4SM BR BKN002
Forecast period: 1100 to 1300 UTC 17 September 2014
Forecast type: TEMPORARY: The following changes expected for less than half the time period
Visibility: 0.75 miles (1.21 km)
Ceiling: 200 feet AGL
Clouds: broken clouds at 200 feet AGL
Weather: BR  (mist)
TAF Text: FM171400 24006KT P6SM SCT035
Forecast period: 1400 to 1800 UTC 17 September 2014
Forecast type: FROM: standard forecast or significant change
Winds: from the WSW (240 degrees) at 7 MPH (6 knots; 3.1 m/s)
Visibility: 6 or more miles (10+ km)
Clouds: scattered clouds at 3500 feet AGL
Weather: no significant weather forecast for this period

Find All Airport Services Find A Hotel Find A Rental Car Find A Golf Course Find A Restaurant $100 Hamburger



FBO's on the Field
FBO Company Facility Photos Services Transportation Aviation Fuel Prices: Prices include tax
Catering Weather Repair Courtesy Rental Type 100LL JetA JetA+ MOGAS 8087
 
Ultimate Air Center

Ultimate Air Center logo
Currently rated 4.1 by 4 people
FS:
Last Updated: Sep-15
Login to update fuel prices
SS:
Contact Ultimate Air CenterMore FBO Information
 
McKinley Air, Inc.

Currently rated 4.4 by 4 people
FS:Phillips66
Last Updated: Sep-05
Login to update fuel prices
SS:
Contact McKinley Air, Inc.More FBO Information
 
Add another FBO Facility Photos Catering Weather Repair Courtesy Rental Type 100LL JetA JetA+ MOGAS 8087
Services Transportation Aviation Fuel Prices: Prices include tax


model-print
model-print
model-print
model-print